Time;durP1;ratioP1;P1;durP2;ratioP2;P2;SDS_P1;SDS_P2;PMS_P1;PMS_P2;Temp;Humidity;BMP_temperature;BMP_pressure;BME280_temperature;BME280_humidity;BME280_pressure;Samples;Min_cycle;Max_cycle;Signal;HPM_P1;HPM_P2
2023/11/10 05:01:47;;;;;;;1.13;1.13;;;7.70;99.90;;;;;;5350759;23;20644;-73
2023/11/10 05:04:14;;;;;;;1.55;1.00;;;7.70;99.90;;;;;;4982529;28;20322;-73
2023/11/10 05:06:41;;;;;;;1.42;1.42;;;7.70;99.90;;;;;;4989720;28;20215;-73
2023/11/10 05:09:09;;;;;;;5.80;1.65;;;7.70;99.90;;;;;;4971310;28;20383;-73
2023/11/10 05:11:36;;;;;;;1.33;1.33;;;7.70;99.90;;;;;;4972838;28;20721;-73
2023/11/10 05:14:03;;;;;;;1.00;1.00;;;7.70;99.90;;;;;;4984253;28;20718;-73
2023/11/10 05:16:30;;;;;;;1.25;1.15;;;7.80;99.90;;;;;;4986942;28;20585;-74
2023/11/10 05:18:59;;;;;;;1.20;1.20;;;7.80;99.90;;;;;;4988109;28;20228;-74
2023/11/10 05:21:26;;;;;;;1.10;1.10;;;7.80;99.90;;;;;;4979438;28;20235;-73
2023/11/10 05:23:53;;;;;;;1.48;1.15;;;7.80;99.90;;;;;;4975498;28;20208;-73
2023/11/10 05:26:20;;;;;;;2.25;1.40;;;7.70;99.90;;;;;;4986675;28;20549;-74
2023/11/10 05:28:47;;;;;;;1.25;1.15;;;7.80;99.90;;;;;;4974108;28;20812;-73
2023/11/10 05:31:15;;;;;;;1.00;1.00;;;7.70;99.90;;;;;;4983866;28;20592;-73
2023/11/10 05:33:42;;;;;;;0.95;0.95;;;7.70;99.90;;;;;;4988660;28;20204;-74
2023/11/10 05:36:10;;;;;;;0.70;0.70;;;7.70;99.90;;;;;;4972690;28;20212;-74
2023/11/10 05:38:37;;;;;;;2.13;1.10;;;7.70;99.90;;;;;;4969922;28;20259;-74
2023/11/10 05:41:04;;;;;;;1.45;1.02;;;7.70;99.90;;;;;;4981951;28;20597;-74
2023/11/10 05:43:31;;;;;;;6.10;1.35;;;7.60;99.90;;;;;;4986454;28;20215;-74
2023/11/10 05:45:58;;;;;;;0.88;0.88;;;7.70;99.90;;;;;;4971022;28;20308;-74
2023/11/10 05:48:24;;;;;;;2.75;0.98;;;7.70;99.90;;;;;;4969767;28;20212;-74
2023/11/10 05:50:51;;;;;;;0.90;0.90;;;7.70;99.90;;;;;;4973619;28;20220;-73
2023/11/10 05:53:19;;;;;;;6.18;1.00;;;7.70;99.90;;;;;;4984146;28;20295;-73
2023/11/10 05:55:46;;;;;;;0.75;0.75;;;7.70;99.90;;;;;;4971825;28;20696;-73
2023/11/10 05:58:13;;;;;;;0.73;0.73;;;7.80;99.90;;;;;;4975773;28;20600;-73
2023/11/10 06:00:39;;;;;;;0.90;0.90;;;7.80;99.90;;;;;;4970761;28;20237;-74
2023/11/10 06:03:07;;;;;;;0.70;0.70;;;7.80;99.90;;;;;;4976818;28;20229;-73
2023/11/10 06:05:34;;;;;;;0.65;0.65;;;7.80;99.90;;;;;;4977131;28;20233;-73
2023/11/10 06:08:01;;;;;;;1.10;1.10;;;7.90;99.90;;;;;;4977302;28;20219;-74
2023/11/10 06:10:29;;;;;;;0.70;0.70;;;7.80;99.90;;;;;;4979926;28;20204;-73
2023/11/10 06:12:56;;;;;;;0.90;0.90;;;7.90;99.90;;;;;;4982680;28;20219;-74
2023/11/10 06:15:22;;;;;;;0.65;0.65;;;7.80;99.90;;;;;;4978872;28;20213;-73
2023/11/10 06:17:50;;;;;;;1.02;0.90;;;7.80;99.90;;;;;;4979935;28;20239;-73
2023/11/10 06:20:16;;;;;;;0.60;0.60;;;7.90;99.90;;;;;;4988376;28;20531;-74
2023/11/10 06:22:43;;;;;;;1.00;1.00;;;7.90;99.90;;;;;;4985611;28;20212;-73
2023/11/10 06:25:10;;;;;;;1.02;1.00;;;7.90;99.90;;;;;;4980821;28;20230;-74
2023/11/10 06:27:39;;;;;;;0.85;0.60;;;7.80;99.90;;;;;;4969206;28;20622;-73
2023/11/10 06:30:06;;;;;;;1.50;0.90;;;7.90;99.90;;;;;;4970237;28;20205;-73
2023/11/10 06:32:33;;;;;;;0.70;0.70;;;7.80;99.90;;;;;;4987939;28;20236;-73
2023/11/10 06:35:00;;;;;;;2.45;0.70;;;7.80;99.90;;;;;;4985466;28;20726;-72
2023/11/10 06:37:27;;;;;;;2.45;0.60;;;7.70;99.90;;;;;;4978319;28;20205;-73
2023/11/10 06:39:53;;;;;;;0.65;0.65;;;7.70;99.90;;;;;;4970652;28;20242;-73
2023/11/10 06:42:20;;;;;;;0.80;0.80;;;7.60;99.90;;;;;;4982353;28;20757;-72
2023/11/10 06:44:49;;;;;;;1.88;0.90;;;7.60;99.90;;;;;;4978131;28;20211;-73
2023/11/10 06:47:16;;;;;;;1.75;1.10;;;7.60;99.90;;;;;;4971618;28;20236;-73
2023/11/10 06:49:43;;;;;;;29.17;13.90;;;7.60;99.90;;;;;;4971122;28;20205;-73
2023/11/10 06:52:11;;;;;;;28.67;16.25;;;7.50;99.90;;;;;;4982286;28;20253;-73
2023/11/10 06:54:38;;;;;;;13.10;9.63;;;7.50;99.90;;;;;;4983174;28;20203;-73
2023/11/10 06:57:06;;;;;;;19.88;12.25;;;7.40;99.90;;;;;;4984747;28;20217;-74
2023/11/10 06:59:34;;;;;;;16.65;9.23;;;7.40;99.90;;;;;;4976676;28;20326;-72
2023/11/10 07:02:03;;;;;;;11.00;8.52;;;7.40;99.90;;;;;;4973851;28;20329;-71
2023/11/10 07:04:30;;;;;;;9.90;6.38;;;7.40;99.90;;;;;;4978395;28;20231;-72
2023/11/10 07:06:56;;;;;;;2.10;2.00;;;7.40;99.90;;;;;;4978525;28;20239;-71
2023/11/10 07:09:25;;;;;;;4.93;3.33;;;7.40;99.90;;;;;;4983621;28;20214;-71
2023/11/10 07:11:52;;;;;;;3.20;2.92;;;7.40;99.90;;;;;;4986307;28;20235;-72
2023/11/10 07:14:19;;;;;;;3.63;3.40;;;7.40;99.90;;;;;;4974800;28;20210;-71
2023/11/10 07:16:45;;;;;;;6.15;4.18;;;7.40;99.90;;;;;;4976841;28;20212;-72
2023/11/10 07:19:13;;;;;;;2.00;1.90;;;7.40;99.90;;;;;;4977420;28;20208;-72
2023/11/10 07:21:40;;;;;;;1.70;1.60;;;7.40;99.90;;;;;;4979934;28;20231;-72
2023/11/10 07:24:09;;;;;;;6.35;4.03;;;7.40;99.90;;;;;;4982841;28;20211;-72
2023/11/10 07:26:35;;;;;;;3.42;1.50;;;7.40;99.90;;;;;;4980401;28;20215;-72
2023/11/10 07:29:03;;;;;;;2.25;2.13;;;7.40;99.90;;;;;;4982933;28;20208;-72
2023/11/10 07:31:31;;;;;;;2.47;2.10;;;7.50;99.90;;;;;;4988473;28;20314;-72
2023/11/10 07:33:59;;;;;;;11.15;6.53;;;7.40;99.90;;;;;;4991866;28;20281;-71
2023/11/10 07:36:27;;;;;;;14.35;4.65;;;7.40;99.90;;;;;;4985148;28;20348;-72
2023/11/10 07:38:54;;;;;;;8.73;5.80;;;7.40;99.90;;;;;;4982296;28;20226;-72
2023/11/10 07:41:21;;;;;;;4.85;3.17;;;7.40;99.90;;;;;;4974345;28;20323;-72
2023/11/10 07:43:48;;;;;;;4.15;3.00;;;7.40;99.90;;;;;;4977776;28;20209;-72
2023/11/10 07:46:15;;;;;;;2.55;1.95;;;7.40;99.90;;;;;;4986540;28;20204;-72
2023/11/10 07:48:42;;;;;;;1.70;1.40;;;7.40;99.90;;;;;;4986704;28;20214;-72
2023/11/10 07:51:09;;;;;;;1.63;1.52;;;7.40;99.90;;;;;;4988030;28;20216;-71
2023/11/10 07:53:38;;;;;;;2.00;1.90;;;7.40;99.90;;;;;;4981435;28;20571;-72
2023/11/10 07:56:05;;;;;;;1.65;1.55;;;7.40;99.90;;;;;;4983894;28;20204;-72
2023/11/10 07:58:32;;;;;;;1.23;0.95;;;7.50;99.90;;;;;;4987891;28;20218;-72
2023/11/10 08:00:59;;;;;;;0.57;0.57;;;7.50;99.90;;;;;;4981909;28;20240;-72
2023/11/10 08:03:26;;;;;;;2.17;1.17;;;7.60;99.90;;;;;;4980743;28;20200;-72
2023/11/10 08:05:53;;;;;;;1.17;1.17;;;7.60;99.90;;;;;;4982541;28;20262;-71
2023/11/10 08:08:20;;;;;;;0.65;0.60;;;7.70;99.90;;;;;;4981246;28;20567;-72
2023/11/10 08:10:48;;;;;;;1.38;1.27;;;7.80;99.90;;;;;;4988131;28;20215;-72
2023/11/10 08:13:15;;;;;;;2.10;1.08;;;7.80;99.90;;;;;;4979713;28;20252;-71
2023/11/10 08:15:43;;;;;;;8.60;1.67;;;7.90;99.90;;;;;;4989311;28;20216;-71
2023/11/10 08:18:11;;;;;;;1.63;1.55;;;7.90;99.90;;;;;;4991196;28;20276;-71
2023/11/10 08:20:39;;;;;;;2.75;2.55;;;7.90;99.90;;;;;;4983339;28;20223;-71
2023/11/10 08:23:06;;;;;;;2.22;1.88;;;7.90;99.90;;;;;;4974839;28;20205;-71
2023/11/10 08:25:33;;;;;;;2.45;1.30;;;7.90;99.90;;;;;;4979692;28;20589;-71
2023/11/10 08:28:05;;;;;;;12.23;5.72;;;8.00;99.90;;;;;;4985567;28;20744;-72
2023/11/10 08:30:32;;;;;;;7.72;4.47;;;8.20;99.90;;;;;;4987911;28;20255;-71
2023/11/10 08:33:00;;;;;;;0.98;0.98;;;8.30;99.90;;;;;;4986760;28;20798;-71
2023/11/10 08:35:27;;;;;;;10.00;5.88;;;8.30;99.90;;;;;;4977503;28;20215;-71
2023/11/10 08:37:54;;;;;;;3.30;2.50;;;8.30;99.90;;;;;;4986734;28;20215;-71
2023/11/10 08:40:21;;;;;;;4.55;4.05;;;8.30;99.90;;;;;;4990219;28;20688;-71
2023/11/10 08:42:50;;;;;;;2.78;2.58;;;8.40;99.90;;;;;;4977317;28;20233;-71
2023/11/10 08:45:18;;;;;;;3.28;2.97;;;8.40;99.90;;;;;;4980119;28;20212;-71
2023/11/10 08:47:45;;;;;;;2.63;2.42;;;8.50;99.90;;;;;;4982437;28;20216;-71
2023/11/10 08:50:12;;;;;;;4.85;2.75;;;8.50;99.90;;;;;;4983075;28;20289;-71
2023/11/10 08:52:41;;;;;;;7.63;4.35;;;8.50;99.90;;;;;;4981347;28;20647;-71
2023/11/10 08:55:10;;;;;;;7.28;4.38;;;8.60;99.90;;;;;;4983322;28;20206;-71
2023/11/10 08:57:39;;;;;;;6.40;3.90;;;8.60;99.90;;;;;;4984247;28;20210;-71
2023/11/10 09:00:11;;;;;;;2.08;1.95;;;8.60;99.90;;;;;;4981782;28;20224;-71
2023/11/10 09:02:39;;;;;;;3.83;3.60;;;8.60;99.90;;;;;;4980978;28;20210;-71
2023/11/10 09:05:07;;;;;;;3.03;2.83;;;8.60;99.90;;;;;;4981237;28;20272;-71
2023/11/10 09:07:34;;;;;;;2.42;2.28;;;8.60;99.90;;;;;;4983714;28;20215;-71
2023/11/10 09:10:01;;;;;;;1.67;1.58;;;8.60;99.90;;;;;;4981198;28;20237;-70
2023/11/10 09:12:28;;;;;;;11.55;5.50;;;8.70;99.90;;;;;;4985666;28;20244;-73
2023/11/10 09:14:55;;;;;;;1.15;1.13;;;8.70;99.90;;;;;;4981005;28;20833;-71
2023/11/10 09:17:22;;;;;;;3.00;1.90;;;8.80;99.90;;;;;;4981728;28;20203;-70
2023/11/10 09:19:51;;;;;;;1.30;1.30;;;8.80;99.90;;;;;;4985893;28;20207;-71
2023/11/10 09:22:18;;;;;;;0.80;0.80;;;8.90;99.90;;;;;;4985073;28;20684;-71
2023/11/10 09:24:47;;;;;;;1.13;1.13;;;8.90;99.90;;;;;;4974254;28;20229;-71
2023/11/10 09:27:13;;;;;;;2.30;1.98;;;9.00;99.90;;;;;;4980301;28;20217;-71
2023/11/10 09:29:40;;;;;;;3.80;2.95;;;9.00;99.90;;;;;;4980894;28;20209;-72
2023/11/10 09:32:10;;;;;;;2.38;2.00;;;9.10;99.90;;;;;;4980273;28;20295;-72
2023/11/10 09:34:37;;;;;;;1.52;1.20;;;9.10;99.90;;;;;;4981388;28;20261;-72
2023/11/10 09:37:05;;;;;;;2.80;2.58;;;9.20;99.90;;;;;;4982637;28;20212;-72
2023/11/10 09:39:32;;;;;;;3.38;3.08;;;9.20;99.90;;;;;;4984126;28;20217;-72
2023/11/10 09:42:06;;;;;;;5.70;4.88;;;9.20;99.90;;;;;;4975600;28;20238;-72
2023/11/10 09:44:37;;;;;;;2.65;2.40;;;9.20;99.90;;;;;;4974632;28;20728;-72
2023/11/10 09:47:05;;;;;;;4.93;3.45;;;9.20;99.90;;;;;;4983130;28;20237;-72
2023/11/10 09:49:32;;;;;;;4.72;4.32;;;9.20;99.90;;;;;;4978822;28;20266;-72
2023/11/10 09:52:02;;;;;;;11.02;6.18;;;9.20;99.90;;;;;;4976723;28;20224;-71
2023/11/10 09:54:31;;;;;;;13.90;6.80;;;9.30;99.90;;;;;;4969890;28;20214;-72
2023/11/10 09:56:59;;;;;;;5.22;2.60;;;9.30;99.90;;;;;;4977018;28;20208;-71
2023/11/10 09:59:29;;;;;;;1.90;1.60;;;9.30;99.90;;;;;;4977071;28;20849;-71
2023/11/10 10:01:56;;;;;;;12.43;7.03;;;9.40;99.90;;;;;;4985567;28;20231;-71
2023/11/10 10:04:23;;;;;;;1.42;1.33;;;9.40;99.90;;;;;;4979382;28;20227;-72
2023/11/10 10:06:51;;;;;;;13.50;5.68;;;9.50;99.90;;;;;;4981075;28;20218;-72
2023/11/10 10:09:19;;;;;;;7.07;4.47;;;9.50;99.90;;;;;;4982543;28;20657;-72
2023/11/10 10:11:48;;;;;;;9.13;5.45;;;9.60;99.90;;;;;;4983698;28;20223;-72
2023/11/10 10:14:15;;;;;;;3.20;2.85;;;9.60;99.90;;;;;;4980129;28;20215;-71
2023/11/10 10:16:52;;;;;;;15.20;8.13;;;9.60;99.90;;;;;;4984878;28;20203;-71
2023/11/10 10:19:22;;;;;;;3.17;2.95;;;9.60;99.90;;;;;;4973049;28;20210;-72
2023/11/10 10:21:49;;;;;;;5.18;3.38;;;9.70;99.90;;;;;;4976217;28;20277;-72
2023/11/10 10:24:16;;;;;;;4.13;3.83;;;9.60;99.90;;;;;;4973262;28;20971;-71
2023/11/10 10:26:43;;;;;;;1.83;1.70;;;9.50;99.90;;;;;;4975445;28;20217;-71
2023/11/10 10:29:11;;;;;;;6.40;4.53;;;9.40;99.90;;;;;;4977864;28;20301;-71
2023/11/10 10:31:38;;;;;;;5.03;3.47;;;9.30;99.90;;;;;;4973655;28;20219;-72
2023/11/10 10:34:06;;;;;;;1.83;1.77;;;9.40;99.90;;;;;;4974565;28;20208;-72
2023/11/10 10:36:33;;;;;;;1.10;1.10;;;9.40;99.90;;;;;;4976475;28;20226;-72
2023/11/10 10:39:03;;;;;;;2.25;2.15;;;9.40;99.90;;;;;;4977902;28;20758;-71
2023/11/10 10:41:34;;;;;;;3.95;2.80;;;9.50;99.90;;;;;;4983929;28;20262;-71
2023/11/10 10:44:02;;;;;;;0.93;0.85;;;9.50;99.90;;;;;;4979471;28;20203;-71
2023/11/10 10:46:34;;;;;;;0.93;0.93;;;9.50;99.90;;;;;;4981492;28;20213;-71
2023/11/10 10:49:02;;;;;;;1.30;0.88;;;9.50;99.90;;;;;;4976417;28;20202;-71
2023/11/10 10:51:33;;;;;;;3.47;3.22;;;9.40;99.90;;;;;;4983862;28;20781;-71
2023/11/10 10:54:03;;;;;;;1.85;1.75;;;9.50;99.90;;;;;;4983744;28;20218;-71
2023/11/10 10:56:31;;;;;;;1.00;1.00;;;9.50;99.90;;;;;;4976802;28;20218;-71
2023/11/10 10:58:59;;;;;;;1.08;1.00;;;9.60;99.90;;;;;;4976617;28;20822;-72
2023/11/10 11:01:27;;;;;;;1.20;1.20;;;9.60;99.90;;;;;;4989034;28;20233;-71
2023/11/10 11:04:13;;;;;;;1.25;1.25;;;9.50;99.90;;;;;;4986826;28;20210;-71
2023/11/10 11:06:52;;;;;;;0.80;0.80;;;9.50;99.90;;;;;;4982844;28;20394;-71
2023/11/10 11:09:36;;;;;;;1.30;1.30;;;9.50;99.90;;;;;;4987764;28;20202;-71
2023/11/10 11:12:35;;;;;;;1.67;1.60;;;9.60;99.90;;;;;;4981928;28;20226;-72
2023/11/10 11:15:16;;;;;;;1.92;1.85;;;9.60;99.90;;;;;;4973686;28;20211;-71
2023/11/10 11:18:03;;;;;;;2.47;2.38;;;9.60;99.90;;;;;;4979971;28;20207;-71
2023/11/10 11:20:32;;;;;;;2.08;1.98;;;9.60;99.90;;;;;;4980077;28;20211;-72
2023/11/10 11:22:59;;;;;;;2.90;2.70;;;9.60;99.90;;;;;;4983284;28;20229;-72
2023/11/10 11:25:26;;;;;;;2.25;1.63;;;9.50;99.90;;;;;;4988780;28;20213;-72
2023/11/10 11:27:59;;;;;;;2.75;1.90;;;9.50;99.90;;;;;;4988673;28;20218;-71
2023/11/10 11:30:35;;;;;;;2.45;2.25;;;9.50;99.90;;;;;;4990549;28;20535;-71
2023/11/10 11:33:06;;;;;;;1.73;1.70;;;9.60;99.90;;;;;;4981925;28;20200;-72
2023/11/10 11:35:45;;;;;;;1.70;1.40;;;9.60;99.90;;;;;;4986404;28;20207;-71
2023/11/10 11:38:12;;;;;;;2.10;1.70;;;9.50;99.90;;;;;;4979385;28;20208;-72
2023/11/10 11:40:43;;;;;;;3.55;1.85;;;9.60;99.90;;;;;;4988214;28;20246;-71
2023/11/10 11:43:10;;;;;;;1.70;1.60;;;9.50;99.90;;;;;;4985692;28;20219;-72
2023/11/10 11:45:39;;;;;;;1.70;1.70;;;9.60;99.90;;;;;;4986984;28;20218;-72
2023/11/10 11:48:09;;;;;;;1.63;1.52;;;9.60;99.90;;;;;;4982197;28;20268;-72
2023/11/10 11:50:36;;;;;;;0.98;0.98;;;9.60;99.90;;;;;;4988034;28;20383;-72
2023/11/10 11:53:04;;;;;;;1.20;1.20;;;9.60;99.90;;;;;;4975643;28;20207;-71
2023/11/10 11:55:33;;;;;;;1.40;1.40;;;9.60;99.90;;;;;;4980014;28;20638;-71
2023/11/10 11:58:02;;;;;;;1.35;1.35;;;9.60;99.90;;;;;;4975288;28;20218;-71
2023/11/10 12:00:29;;;;;;;1.17;1.17;;;9.70;99.90;;;;;;4989136;28;20211;-71
2023/11/10 12:02:56;;;;;;;1.80;1.33;;;9.70;99.90;;;;;;4983464;28;20231;-71
2023/11/10 12:05:23;;;;;;;0.90;0.90;;;9.70;99.90;;;;;;4985640;28;20211;-70
2023/11/10 12:07:49;;;;;;;1.45;1.30;;;9.80;99.90;;;;;;4982313;28;20215;-71
2023/11/10 12:10:18;;;;;;;1.35;1.35;;;9.80;99.90;;;;;;4982647;28;20207;-71
2023/11/10 12:12:45;;;;;;;1.10;1.10;;;9.90;99.90;;;;;;4977679;28;20215;-71
2023/11/10 12:15:13;;;;;;;1.23;1.13;;;9.90;99.90;;;;;;4977964;28;20208;-71
2023/11/10 12:17:41;;;;;;;1.25;1.25;;;9.90;99.90;;;;;;4980312;28;20564;-71
2023/11/10 12:20:09;;;;;;;3.90;3.00;;;9.90;99.90;;;;;;4975668;28;20750;-71
2023/11/10 12:22:36;;;;;;;2.70;2.60;;;9.90;99.90;;;;;;4974309;28;20235;-71
2023/11/10 12:25:03;;;;;;;1.85;1.83;;;9.90;99.90;;;;;;4983404;28;20207;-72
2023/11/10 12:27:35;;;;;;;2.90;2.63;;;9.90;99.90;;;;;;4988627;28;20725;-72
2023/11/10 12:30:02;;;;;;;3.40;2.72;;;9.90;99.90;;;;;;4986306;28;20214;-71
2023/11/10 12:32:30;;;;;;;3.55;3.08;;;9.90;99.90;;;;;;4987303;28;20287;-71
2023/11/10 12:34:57;;;;;;;6.53;5.18;;;10.00;99.90;;;;;;4986126;28;20215;-71
2023/11/10 12:37:24;;;;;;;3.00;2.50;;;10.00;99.90;;;;;;4984568;28;20207;-71
2023/11/10 12:39:50;;;;;;;6.20;5.10;;;10.00;99.90;;;;;;4987671;28;20817;-71
2023/11/10 12:42:17;;;;;;;4.13;3.83;;;10.00;99.90;;;;;;4983030;28;20239;-72
2023/11/10 12:44:55;;;;;;;3.85;2.42;;;10.00;99.90;;;;;;4984462;28;20211;-72
2023/11/10 12:47:30;;;;;;;5.50;4.03;;;10.00;99.90;;;;;;4977662;28;20810;-71
2023/11/10 12:49:59;;;;;;;3.50;3.10;;;10.00;99.90;;;;;;4976218;28;20353;-70
2023/11/10 12:52:26;;;;;;;8.07;4.50;;;10.00;99.90;;;;;;4977512;28;20274;-71
2023/11/10 12:54:52;;;;;;;4.63;4.05;;;10.00;99.90;;;;;;4978645;28;20207;-71
2023/11/10 12:57:19;;;;;;;2.63;2.45;;;10.10;99.90;;;;;;4978979;28;20218;-73
2023/11/10 12:59:48;;;;;;;3.60;3.30;;;10.20;99.90;;;;;;4981543;28;20257;-71
2023/11/10 13:02:15;;;;;;;8.10;5.15;;;10.10;99.90;;;;;;4970481;28;20236;-71
2023/11/10 13:04:42;;;;;;;15.20;8.90;;;10.20;99.90;;;;;;4983556;28;20210;-73
2023/11/10 13:07:09;;;;;;;1.42;1.23;;;10.30;99.90;;;;;;4987902;28;20233;-72
2023/11/10 13:09:35;;;;;;;8.82;5.70;;;10.30;99.90;;;;;;4987757;28;20278;-73
2023/11/10 13:12:03;;;;;;;1.80;1.70;;;10.30;99.90;;;;;;4982346;28;20306;-72
2023/11/10 13:14:30;;;;;;;2.72;1.80;;;10.20;99.90;;;;;;4974805;28;20694;-72
2023/11/10 13:16:58;;;;;;;2.85;2.65;;;10.20;99.90;;;;;;4978643;28;20632;-71
2023/11/10 13:19:25;;;;;;;1.75;1.65;;;10.30;99.90;;;;;;4974472;28;20216;-72
2023/11/10 13:21:53;;;;;;;3.45;1.77;;;10.20;99.90;;;;;;4974815;28;20235;-71
2023/11/10 13:24:20;;;;;;;1.17;1.15;;;10.20;99.90;;;;;;4971900;28;20254;-72
2023/11/10 13:26:46;;;;;;;2.65;1.15;;;10.20;99.90;;;;;;4978217;28;20641;-71
2023/11/10 13:29:15;;;;;;;1.90;1.80;;;10.10;99.90;;;;;;4976773;28;20626;-73
2023/11/10 13:31:42;;;;;;;1.17;1.17;;;10.10;99.90;;;;;;4972826;28;20363;-71
2023/11/10 13:34:18;;;;;;;1.17;1.17;;;10.20;99.90;;;;;;4976586;28;20211;-70
2023/11/10 13:36:45;;;;;;;1.33;1.23;;;10.10;99.90;;;;;;4974637;28;20784;-72
2023/11/10 13:39:13;;;;;;;1.80;1.70;;;10.20;99.90;;;;;;4979405;28;20391;-71
2023/11/10 13:41:40;;;;;;;1.33;1.33;;;10.10;99.90;;;;;;4970437;28;20232;-72
2023/11/10 13:44:08;;;;;;;1.30;1.30;;;10.10;99.90;;;;;;4974087;28;20208;-71
2023/11/10 13:46:36;;;;;;;1.20;1.20;;;10.20;99.90;;;;;;4970212;28;20248;-71
2023/11/10 13:49:06;;;;;;;4.22;1.15;;;10.10;99.90;;;;;;4976378;28;20288;-71
2023/11/10 13:51:34;;;;;;;1.35;1.35;;;10.10;99.90;;;;;;4974912;28;20243;-71
2023/11/10 13:54:01;;;;;;;1.90;1.42;;;10.10;99.90;;;;;;4975903;28;20212;-72
2023/11/10 13:56:27;;;;;;;3.75;3.10;;;10.20;99.90;;;;;;4969170;28;20208;-71
2023/11/10 13:58:54;;;;;;;7.80;6.85;;;10.20;99.90;;;;;;4971744;28;20219;-72
2023/11/10 14:01:21;;;;;;;8.52;7.72;;;10.30;99.90;;;;;;4975863;28;20227;-72
2023/11/10 14:03:48;;;;;;;8.35;5.75;;;10.30;99.90;;;;;;4974286;28;20241;-71
2023/11/10 14:06:15;;;;;;;5.03;4.63;;;10.30;99.90;;;;;;4972945;28;20278;-71
2023/11/10 14:08:44;;;;;;;3.30;2.60;;;10.20;99.90;;;;;;4973998;28;20310;-70
2023/11/10 14:11:12;;;;;;;2.50;2.40;;;10.20;99.90;;;;;;4984297;28;20222;-71
2023/11/10 14:13:39;;;;;;;1.80;1.70;;;10.00;99.90;;;;;;4976808;28;20227;-71
2023/11/10 14:16:09;;;;;;;1.50;1.50;;;10.00;99.90;;;;;;4972582;28;20214;-71
2023/11/10 14:18:37;;;;;;;1.40;1.20;;;9.90;99.90;;;;;;4982785;28;20266;-75
2023/11/10 14:21:04;;;;;;;1.08;1.08;;;10.00;99.90;;;;;;4970026;28;20681;-71
2023/11/10 14:23:31;;;;;;;1.60;1.60;;;10.00;99.90;;;;;;4983050;28;20242;-71
2023/11/10 14:26:00;;;;;;;1.25;1.25;;;10.00;99.90;;;;;;4979078;28;20211;-71
2023/11/10 14:28:26;;;;;;;1.85;1.85;;;10.00;99.90;;;;;;4984942;28;20904;-70
2023/11/10 14:30:56;;;;;;;1.23;1.23;;;10.00;99.90;;;;;;4973286;28;20721;-71
2023/11/10 14:33:25;;;;;;;1.30;1.30;;;10.00;99.90;;;;;;4980898;28;20275;-71
2023/11/10 14:35:51;;;;;;;0.95;0.93;;;10.00;99.90;;;;;;4975430;28;20206;-71
2023/11/10 14:38:18;;;;;;;2.08;1.98;;;9.90;99.90;;;;;;4978367;28;20802;-71
2023/11/10 14:40:45;;;;;;;4.20;3.90;;;10.00;99.90;;;;;;4974983;28;20228;-71
2023/11/10 14:43:18;;;;;;;20.38;12.73;;;10.00;99.90;;;;;;4973606;28;20238;-71
2023/11/10 14:45:48;;;;;;;7.38;5.40;;;10.00;99.90;;;;;;4979559;28;20208;-71
2023/11/10 14:48:17;;;;;;;3.10;3.00;;;10.00;99.90;;;;;;4976853;28;20215;-71
2023/11/10 14:50:46;;;;;;;1.98;1.77;;;9.90;99.90;;;;;;4975762;28;21127;-70
2023/11/10 14:53:17;;;;;;;3.08;2.38;;;9.90;99.90;;;;;;4977033;28;20207;-71
2023/11/10 14:55:44;;;;;;;4.22;2.42;;;9.90;99.90;;;;;;4978397;28;20236;-71
2023/11/10 14:58:11;;;;;;;5.55;3.08;;;9.90;99.90;;;;;;4977990;28;20291;-71
2023/11/10 15:00:40;;;;;;;2.28;1.83;;;9.90;99.90;;;;;;4978089;28;20249;-70
2023/11/10 15:03:09;;;;;;;7.72;6.13;;;9.90;99.90;;;;;;4974634;28;20258;-71
2023/11/10 15:05:36;;;;;;;10.25;4.40;;;9.90;99.90;;;;;;4976736;28;20211;-71
2023/11/10 15:08:05;;;;;;;4.75;4.30;;;9.90;99.90;;;;;;4974738;28;20855;-71
2023/11/10 15:10:35;;;;;;;5.00;4.63;;;9.80;99.90;;;;;;4979025;28;20647;-71
2023/11/10 15:13:03;;;;;;;1.20;1.20;;;9.80;99.90;;;;;;4980439;28;20209;-71
2023/11/10 15:15:30;;;;;;;3.13;3.03;;;9.80;99.90;;;;;;4979145;28;20242;-71
2023/11/10 15:17:59;;;;;;;5.70;3.10;;;9.80;99.90;;;;;;4980021;28;20872;-71
2023/11/10 15:20:26;;;;;;;6.72;3.80;;;9.80;99.90;;;;;;4978732;28;20251;-71
2023/11/10 15:22:53;;;;;;;3.65;3.35;;;9.80;99.90;;;;;;4980333;28;20667;-71
2023/11/10 15:25:22;;;;;;;5.93;5.53;;;9.80;99.90;;;;;;4976446;28;20294;-70
2023/11/10 15:27:50;;;;;;;2.15;2.05;;;9.70;99.90;;;;;;4982012;28;20648;-71
2023/11/10 15:30:17;;;;;;;6.15;5.55;;;9.70;99.90;;;;;;4978237;28;20274;-70
2023/11/10 15:32:44;;;;;;;11.10;7.15;;;9.70;99.90;;;;;;4983176;28;20211;-70
2023/11/10 15:35:12;;;;;;;3.75;3.45;;;9.70;99.90;;;;;;4975773;28;20225;-71
2023/11/10 15:37:42;;;;;;;6.53;3.00;;;9.60;99.90;;;;;;4984243;28;20338;-71
2023/11/10 15:40:11;;;;;;;1.50;1.40;;;9.60;99.90;;;;;;4976290;28;20227;-70
2023/11/10 15:42:38;;;;;;;2.40;1.65;;;9.60;99.90;;;;;;4978983;28;20285;-71
2023/11/10 15:45:05;;;;;;;1.58;1.33;;;9.60;99.90;;;;;;4976163;28;20210;-71
2023/11/10 15:47:32;;;;;;;1.42;1.35;;;9.50;99.90;;;;;;4981495;28;20215;-71
2023/11/10 15:50:01;;;;;;;3.63;3.38;;;9.50;99.90;;;;;;4980614;28;20201;-70
2023/11/10 15:52:29;;;;;;;2.05;1.50;;;9.40;99.90;;;;;;4974160;28;20309;-71
2023/11/10 15:54:58;;;;;;;1.65;1.55;;;9.40;99.90;;;;;;4977801;28;20619;-70
2023/11/10 15:57:25;;;;;;;1.92;1.83;;;9.30;99.90;;;;;;4980547;28;20206;-71
2023/11/10 15:59:54;;;;;;;1.63;1.60;;;9.20;99.90;;;;;;4973686;28;20206;-71
2023/11/10 16:02:22;;;;;;;4.45;2.42;;;9.10;99.90;;;;;;4977232;28;20584;-71
2023/11/10 16:04:49;;;;;;;2.13;2.03;;;9.10;99.90;;;;;;4979106;28;20277;-72
2023/11/10 16:07:16;;;;;;;4.13;2.28;;;9.00;99.90;;;;;;4983743;28;20201;-71
2023/11/10 16:09:45;;;;;;;1.63;1.52;;;9.00;99.90;;;;;;4974023;28;20211;-71
2023/11/10 16:12:12;;;;;;;1.85;1.85;;;9.00;99.90;;;;;;4975770;28;20267;-71
2023/11/10 16:14:39;;;;;;;2.40;2.05;;;8.90;99.90;;;;;;4977442;28;20209;-72
2023/11/10 16:17:06;;;;;;;2.40;1.73;;;8.90;99.90;;;;;;4977910;28;20259;-73
2023/11/10 16:19:34;;;;;;;1.38;1.38;;;8.90;99.90;;;;;;4975191;28;20219;-72
2023/11/10 16:22:01;;;;;;;1.73;1.67;;;8.90;99.90;;;;;;4981239;28;20360;-73
2023/11/10 16:24:28;;;;;;;2.03;1.85;;;8.80;99.90;;;;;;4976277;28;20214;-73
2023/11/10 16:26:57;;;;;;;2.05;1.95;;;8.80;99.90;;;;;;4977307;28;20209;-73
2023/11/10 16:29:24;;;;;;;1.80;1.70;;;8.80;99.90;;;;;;4979238;28;20205;-73
2023/11/10 16:31:51;;;;;;;2.30;2.20;;;8.80;99.90;;;;;;4979601;28;20226;-74
2023/11/10 16:34:19;;;;;;;2.05;1.95;;;8.80;99.90;;;;;;4976044;28;20206;-73
2023/11/10 16:36:46;;;;;;;1.70;1.08;;;8.80;99.90;;;;;;4981419;28;20213;-73
2023/11/10 16:39:13;;;;;;;1.95;1.85;;;8.80;99.90;;;;;;4975837;28;20230;-74
2023/11/10 16:41:44;;;;;;;3.25;1.90;;;8.80;99.90;;;;;;4977615;28;20299;-74
2023/11/10 16:44:13;;;;;;;1.65;1.65;;;8.80;99.90;;;;;;4984121;28;20255;-74
2023/11/10 16:46:41;;;;;;;1.45;1.45;;;8.80;99.90;;;;;;4983101;28;20213;-73
2023/11/10 16:49:09;;;;;;;1.77;1.45;;;8.70;99.90;;;;;;4975029;28;20221;-73
2023/11/10 16:51:36;;;;;;;2.38;2.17;;;8.70;99.90;;;;;;4974741;28;20663;-74
2023/11/10 16:54:03;;;;;;;3.17;2.97;;;8.70;99.90;;;;;;4980087;28;20387;-74
2023/11/10 16:56:30;;;;;;;3.50;2.22;;;8.70;99.90;;;;;;4981433;28;20209;-74
2023/11/10 16:58:58;;;;;;;3.42;3.13;;;8.70;99.90;;;;;;4976527;28;20242;-73
2023/11/10 17:01:28;;;;;;;3.42;2.55;;;8.70;99.90;;;;;;4973696;28;20232;-73
2023/11/10 17:03:55;;;;;;;8.07;4.85;;;8.70;99.90;;;;;;4985765;28;20777;-75
2023/11/10 17:06:22;;;;;;;11.25;7.65;;;8.70;99.90;;;;;;4978899;28;20210;-73
2023/11/10 17:08:49;;;;;;;6.45;4.80;;;8.70;99.90;;;;;;4975294;28;20204;-73
2023/11/10 17:11:17;;;;;;;26.90;16.73;;;8.70;99.90;;;;;;4974398;28;20759;-73
2023/11/10 17:13:43;;;;;;;6.68;4.32;;;8.70;99.90;;;;;;4980442;28;20227;-73
2023/11/10 17:16:11;;;;;;;6.80;5.65;;;8.90;99.90;;;;;;4994021;23;20228;-73
2023/11/10 17:18:40;;;;;;;10.23;5.03;;;8.50;99.90;;;;;;4983222;28;20220;-73
2023/11/10 17:21:07;;;;;;;3.25;3.00;;;8.70;99.90;;;;;;4988566;28;20216;-73
2023/11/10 17:23:34;;;;;;;4.07;3.10;;;8.70;99.90;;;;;;4990441;28;20225;-72
2023/11/10 17:26:03;;;;;;;6.03;3.40;;;8.70;99.90;;;;;;4980331;28;20682;-73
2023/11/10 17:28:30;;;;;;;2.60;2.33;;;8.70;99.90;;;;;;4973852;28;20299;-73
2023/11/10 17:30:56;;;;;;;3.40;2.70;;;8.70;99.90;;;;;;4975676;28;20231;-72
2023/11/10 17:33:23;;;;;;;2.72;2.50;;;8.70;99.90;;;;;;4973691;28;20202;-72
2023/11/10 17:35:51;;;;;;;3.63;3.13;;;8.70;99.90;;;;;;4975561;28;20229;-73
2023/11/10 17:38:19;;;;;;;4.28;3.92;;;8.70;99.90;;;;;;4975104;28;20206;-72
2023/11/10 17:40:47;;;;;;;5.43;3.50;;;8.70;99.90;;;;;;4973631;28;20305;-71
2023/11/10 17:43:14;;;;;;;2.05;1.90;;;8.70;99.90;;;;;;4974578;28;20704;-72
2023/11/10 17:45:40;;;;;;;5.07;3.05;;;8.70;99.90;;;;;;4972615;28;20229;-72
2023/11/10 17:48:07;;;;;;;2.78;2.50;;;8.70;99.90;;;;;;4971750;28;20264;-72
2023/11/10 17:50:34;;;;;;;2.80;2.60;;;8.70;99.90;;;;;;4972512;28;20212;-72
2023/11/10 17:53:03;;;;;;;1.25;1.20;;;8.70;99.90;;;;;;4973735;28;20580;-72
2023/11/10 17:55:30;;;;;;;1.60;1.50;;;8.80;99.90;;;;;;4975211;28;20295;-73
2023/11/10 17:57:58;;;;;;;1.30;1.30;;;8.80;99.90;;;;;;4973769;28;20576;-73
2023/11/10 18:00:24;;;;;;;1.90;1.80;;;8.80;99.90;;;;;;4968125;28;20202;-74